sensor_id;sensor_type;location;lat;lon;timestamp;P1;durP1;ratioP1;P2;durP2;ratioP2
6358;SDS011;3212;51.460;11.868;2023-02-15T00:02:29;30.77;;;13.90;;
6358;SDS011;3212;51.460;11.868;2023-02-15T00:05:52;29.83;;;14.20;;
6358;SDS011;3212;51.460;11.868;2023-02-15T00:09:14;29.47;;;12.83;;
6358;SDS011;3212;51.460;11.868;2023-02-15T00:12:37;34.03;;;14.40;;
6358;SDS011;3212;51.460;11.868;2023-02-15T00:16:02;31.40;;;14.67;;
6358;SDS011;3212;51.460;11.868;2023-02-15T00:19:24;34.23;;;12.33;;
6358;SDS011;3212;51.460;11.868;2023-02-15T00:22:46;23.60;;;12.40;;
6358;SDS011;3212;51.460;11.868;2023-02-15T00:26:10;36.63;;;12.67;;
6358;SDS011;3212;51.460;11.868;2023-02-15T00:29:31;50.30;;;12.83;;
6358;SDS011;3212;51.460;11.868;2023-02-15T00:32:54;39.03;;;13.10;;
6358;SDS011;3212;51.460;11.868;2023-02-15T00:36:16;22.20;;;10.90;;
6358;SDS011;3212;51.460;11.868;2023-02-15T00:39:40;24.17;;;11.37;;
6358;SDS011;3212;51.460;11.868;2023-02-15T00:43:03;44.63;;;12.73;;
6358;SDS011;3212;51.460;11.868;2023-02-15T00:46:26;64.93;;;13.93;;
6358;SDS011;3212;51.460;11.868;2023-02-15T00:49:49;23.37;;;12.53;;
6358;SDS011;3212;51.460;11.868;2023-02-15T00:53:12;43.13;;;12.73;;
6358;SDS011;3212;51.460;11.868;2023-02-15T00:56:35;27.03;;;13.27;;
6358;SDS011;3212;51.460;11.868;2023-02-15T00:59:58;23.70;;;11.87;;
6358;SDS011;3212;51.460;11.868;2023-02-15T01:03:21;25.47;;;11.83;;
6358;SDS011;3212;51.460;11.868;2023-02-15T01:06:43;34.13;;;11.40;;
6358;SDS011;3212;51.460;11.868;2023-02-15T01:10:06;24.98;;;12.00;;
6358;SDS011;3212;51.460;11.868;2023-02-15T01:13:29;52.13;;;13.93;;
6358;SDS011;3212;51.460;11.868;2023-02-15T01:16:51;41.27;;;12.90;;
6358;SDS011;3212;51.460;11.868;2023-02-15T01:20:14;35.03;;;14.23;;
6358;SDS011;3212;51.460;11.868;2023-02-15T01:23:37;36.17;;;12.80;;
6358;SDS011;3212;51.460;11.868;2023-02-15T01:26:59;22.80;;;12.73;;
6358;SDS011;3212;51.460;11.868;2023-02-15T01:30:22;23.97;;;12.07;;
6358;SDS011;3212;51.460;11.868;2023-02-15T01:33:45;22.97;;;11.40;;
6358;SDS011;3212;51.460;11.868;2023-02-15T01:37:07;37.03;;;12.20;;
6358;SDS011;3212;51.460;11.868;2023-02-15T01:40:30;30.52;;;11.60;;
6358;SDS011;3212;51.460;11.868;2023-02-15T01:43:54;63.97;;;11.90;;
6358;SDS011;3212;51.460;11.868;2023-02-15T01:47:22;35.93;;;12.70;;
6358;SDS011;3212;51.460;11.868;2023-02-15T01:50:43;50.57;;;12.30;;
6358;SDS011;3212;51.460;11.868;2023-02-15T01:54:09;29.73;;;11.60;;
6358;SDS011;3212;51.460;11.868;2023-02-15T01:57:38;24.07;;;11.90;;
6358;SDS011;3212;51.460;11.868;2023-02-15T02:01:00;34.07;;;11.30;;
6358;SDS011;3212;51.460;11.868;2023-02-15T02:04:26;25.37;;;11.25;;
6358;SDS011;3212;51.460;11.868;2023-02-15T02:07:50;25.20;;;11.53;;
6358;SDS011;3212;51.460;11.868;2023-02-15T02:11:13;23.37;;;9.77;;
6358;SDS011;3212;51.460;11.868;2023-02-15T02:14:36;20.50;;;10.10;;
6358;SDS011;3212;51.460;11.868;2023-02-15T02:18:04;21.93;;;10.03;;
6358;SDS011;3212;51.460;11.868;2023-02-15T02:21:36;17.33;;;9.13;;
6358;SDS011;3212;51.460;11.868;2023-02-15T02:32:34;28.10;;;8.80;;
6358;SDS011;3212;51.460;11.868;2023-02-15T02:36:19;17.17;;;8.07;;
6358;SDS011;3212;51.460;11.868;2023-02-15T02:39:45;18.43;;;8.03;;
6358;SDS011;3212;51.460;11.868;2023-02-15T02:43:05;15.50;;;7.90;;
6358;SDS011;3212;51.460;11.868;2023-02-15T02:46:30;22.37;;;8.33;;
6358;SDS011;3212;51.460;11.868;2023-02-15T02:49:57;19.87;;;9.77;;
6358;SDS011;3212;51.460;11.868;2023-02-15T02:53:15;21.47;;;7.87;;
6358;SDS011;3212;51.460;11.868;2023-02-15T02:56:40;13.40;;;7.50;;
6358;SDS011;3212;51.460;11.868;2023-02-15T03:00:02;24.50;;;7.80;;
6358;SDS011;3212;51.460;11.868;2023-02-15T03:03:26;19.37;;;7.60;;
6358;SDS011;3212;51.460;11.868;2023-02-15T03:06:50;14.70;;;7.77;;
6358;SDS011;3212;51.460;11.868;2023-02-15T03:10:10;13.73;;;6.30;;
6358;SDS011;3212;51.460;11.868;2023-02-15T03:13:33;13.25;;;6.55;;
6358;SDS011;3212;51.460;11.868;2023-02-15T03:16:56;12.20;;;6.50;;
6358;SDS011;3212;51.460;11.868;2023-02-15T03:20:20;12.80;;;7.00;;
6358;SDS011;3212;51.460;11.868;2023-02-15T03:23:41;10.43;;;6.00;;
6358;SDS011;3212;51.460;11.868;2023-02-15T03:27:06;13.33;;;7.20;;
6358;SDS011;3212;51.460;11.868;2023-02-15T03:30:27;17.27;;;6.43;;
6358;SDS011;3212;51.460;11.868;2023-02-15T03:33:55;21.13;;;6.37;;
6358;SDS011;3212;51.460;11.868;2023-02-15T03:37:26;10.32;;;6.03;;
6358;SDS011;3212;51.460;11.868;2023-02-15T03:40:50;95.50;;;8.53;;
6358;SDS011;3212;51.460;11.868;2023-02-15T03:44:22;27.13;;;6.70;;
6358;SDS011;3212;51.460;11.868;2023-02-15T03:47:46;10.20;;;5.70;;
6358;SDS011;3212;51.460;11.868;2023-02-15T03:51:09;39.43;;;6.57;;
6358;SDS011;3212;51.460;11.868;2023-02-15T03:54:35;11.37;;;5.97;;
6358;SDS011;3212;51.460;11.868;2023-02-15T03:58:04;22.73;;;6.90;;
6358;SDS011;3212;51.460;11.868;2023-02-15T04:01:34;41.90;;;7.10;;
6358;SDS011;3212;51.460;11.868;2023-02-15T04:05:06;18.83;;;6.07;;
6358;SDS011;3212;51.460;11.868;2023-02-15T04:08:28;19.40;;;5.97;;
6358;SDS011;3212;51.460;11.868;2023-02-15T04:11:57;79.23;;;7.40;;
6358;SDS011;3212;51.460;11.868;2023-02-15T04:15:19;22.07;;;6.83;;
6358;SDS011;3212;51.460;11.868;2023-02-15T04:18:47;24.10;;;6.90;;
6358;SDS011;3212;51.460;11.868;2023-02-15T04:22:16;13.50;;;6.20;;
6358;SDS011;3212;51.460;11.868;2023-02-15T04:25:45;12.77;;;6.00;;
6358;SDS011;3212;51.460;11.868;2023-02-15T04:29:08;10.83;;;6.10;;
6358;SDS011;3212;51.460;11.868;2023-02-15T04:32:31;11.40;;;6.03;;
6358;SDS011;3212;51.460;11.868;2023-02-15T04:35:54;6.30;;;4.50;;
6358;SDS011;3212;51.460;11.868;2023-02-15T04:39:17;8.95;;;5.07;;
6358;SDS011;3212;51.460;11.868;2023-02-15T04:42:40;14.33;;;5.00;;
6358;SDS011;3212;51.460;11.868;2023-02-15T04:46:03;8.73;;;5.20;;
6358;SDS011;3212;51.460;11.868;2023-02-15T04:49:26;10.03;;;4.90;;
6358;SDS011;3212;51.460;11.868;2023-02-15T04:52:49;11.30;;;5.67;;
6358;SDS011;3212;51.460;11.868;2023-02-15T04:56:11;10.90;;;5.10;;
6358;SDS011;3212;51.460;11.868;2023-02-15T04:59:34;7.90;;;5.00;;
6358;SDS011;3212;51.460;11.868;2023-02-15T05:02:57;13.50;;;5.00;;
6358;SDS011;3212;51.460;11.868;2023-02-15T05:06:19;8.37;;;4.60;;
6358;SDS011;3212;51.460;11.868;2023-02-15T05:09:42;10.47;;;5.20;;
6358;SDS011;3212;51.460;11.868;2023-02-15T05:13:05;10.80;;;5.50;;
6358;SDS011;3212;51.460;11.868;2023-02-15T05:16:27;10.77;;;5.80;;
6358;SDS011;3212;51.460;11.868;2023-02-15T05:19:50;6.97;;;4.97;;
6358;SDS011;3212;51.460;11.868;2023-02-15T05:23:13;8.33;;;5.13;;
6358;SDS011;3212;51.460;11.868;2023-02-15T05:26:35;9.43;;;5.20;;
6358;SDS011;3212;51.460;11.868;2023-02-15T05:30:04;9.10;;;5.55;;
6358;SDS011;3212;51.460;11.868;2023-02-15T05:33:27;7.87;;;4.73;;
6358;SDS011;3212;51.460;11.868;2023-02-15T05:36:50;14.03;;;4.77;;
6358;SDS011;3212;51.460;11.868;2023-02-15T05:40:13;13.93;;;5.07;;
6358;SDS011;3212;51.460;11.868;2023-02-15T05:43:35;34.67;;;5.67;;
6358;SDS011;3212;51.460;11.868;2023-02-15T05:46:58;16.47;;;4.43;;
6358;SDS011;3212;51.460;11.868;2023-02-15T05:50:21;11.70;;;5.70;;
6358;SDS011;3212;51.460;11.868;2023-02-15T05:53:44;13.23;;;5.60;;
6358;SDS011;3212;51.460;11.868;2023-02-15T05:57:06;14.50;;;5.60;;
6358;SDS011;3212;51.460;11.868;2023-02-15T06:00:29;16.53;;;6.30;;
6358;SDS011;3212;51.460;11.868;2023-02-15T06:03:52;14.80;;;5.73;;
6358;SDS011;3212;51.460;11.868;2023-02-15T06:07:14;15.60;;;6.30;;
6358;SDS011;3212;51.460;11.868;2023-02-15T06:10:37;11.90;;;5.70;;
6358;SDS011;3212;51.460;11.868;2023-02-15T06:14:00;21.97;;;6.17;;
6358;SDS011;3212;51.460;11.868;2023-02-15T06:17:22;14.53;;;6.10;;
6358;SDS011;3212;51.460;11.868;2023-02-15T06:20:45;10.63;;;6.00;;
6358;SDS011;3212;51.460;11.868;2023-02-15T06:24:08;32.60;;;6.60;;
6358;SDS011;3212;51.460;11.868;2023-02-15T06:27:31;73.70;;;7.40;;
6358;SDS011;3212;51.460;11.868;2023-02-15T06:30:54;40.77;;;6.73;;
6358;SDS011;3212;51.460;11.868;2023-02-15T06:34:17;19.63;;;5.23;;
6358;SDS011;3212;51.460;11.868;2023-02-15T06:37:40;38.70;;;6.23;;
6358;SDS011;3212;51.460;11.868;2023-02-15T06:41:02;21.43;;;6.37;;
6358;SDS011;3212;51.460;11.868;2023-02-15T06:44:25;30.63;;;6.77;;
6358;SDS011;3212;51.460;11.868;2023-02-15T06:47:48;26.50;;;5.23;;
6358;SDS011;3212;51.460;11.868;2023-02-15T06:51:10;16.50;;;5.83;;
6358;SDS011;3212;51.460;11.868;2023-02-15T06:54:33;15.63;;;5.23;;
6358;SDS011;3212;51.460;11.868;2023-02-15T06:57:56;12.73;;;5.20;;
6358;SDS011;3212;51.460;11.868;2023-02-15T07:01:18;10.10;;;5.73;;
6358;SDS011;3212;51.460;11.868;2023-02-15T07:04:41;8.88;;;5.12;;
6358;SDS011;3212;51.460;11.868;2023-02-15T07:08:03;10.50;;;5.17;;
6358;SDS011;3212;51.460;11.868;2023-02-15T07:11:26;11.47;;;5.30;;
6358;SDS011;3212;51.460;11.868;2023-02-15T07:14:54;10.03;;;6.20;;
6358;SDS011;3212;51.460;11.868;2023-02-15T07:18:19;11.37;;;5.07;;
6358;SDS011;3212;51.460;11.868;2023-02-15T07:21:46;10.87;;;5.57;;
6358;SDS011;3212;51.460;11.868;2023-02-15T07:25:10;9.00;;;5.43;;
6358;SDS011;3212;51.460;11.868;2023-02-15T07:28:32;8.40;;;5.03;;
6358;SDS011;3212;51.460;11.868;2023-02-15T07:31:54;10.63;;;6.03;;
6358;SDS011;3212;51.460;11.868;2023-02-15T07:35:17;9.50;;;6.17;;
6358;SDS011;3212;51.460;11.868;2023-02-15T07:38:40;9.57;;;5.60;;
6358;SDS011;3212;51.460;11.868;2023-02-15T07:42:01;10.33;;;6.00;;
6358;SDS011;3212;51.460;11.868;2023-02-15T07:45:25;10.07;;;6.20;;
6358;SDS011;3212;51.460;11.868;2023-02-15T07:48:47;11.90;;;6.13;;
6358;SDS011;3212;51.460;11.868;2023-02-15T07:52:10;12.20;;;6.53;;
6358;SDS011;3212;51.460;11.868;2023-02-15T07:55:33;10.05;;;6.12;;
6358;SDS011;3212;51.460;11.868;2023-02-15T07:58:56;10.33;;;6.23;;
6358;SDS011;3212;51.460;11.868;2023-02-15T08:02:19;10.80;;;6.10;;
6358;SDS011;3212;51.460;11.868;2023-02-15T08:05:42;12.50;;;6.93;;
6358;SDS011;3212;51.460;11.868;2023-02-15T08:09:05;8.00;;;5.70;;
6358;SDS011;3212;51.460;11.868;2023-02-15T08:12:27;11.10;;;6.20;;
6358;SDS011;3212;51.460;11.868;2023-02-15T08:15:50;9.33;;;5.80;;
6358;SDS011;3212;51.460;11.868;2023-02-15T08:19:15;9.37;;;5.40;;
6358;SDS011;3212;51.460;11.868;2023-02-15T08:22:39;10.70;;;6.00;;
6358;SDS011;3212;51.460;11.868;2023-02-15T08:26:01;8.63;;;5.03;;
6358;SDS011;3212;51.460;11.868;2023-02-15T08:29:24;7.53;;;4.90;;
6358;SDS011;3212;51.460;11.868;2023-02-15T08:32:47;8.03;;;5.07;;
6358;SDS011;3212;51.460;11.868;2023-02-15T08:36:12;8.63;;;5.50;;
6358;SDS011;3212;51.460;11.868;2023-02-15T08:39:33;7.70;;;5.30;;
6358;SDS011;3212;51.460;11.868;2023-02-15T08:42:56;7.80;;;5.10;;
6358;SDS011;3212;51.460;11.868;2023-02-15T08:46:19;11.10;;;6.13;;
6358;SDS011;3212;51.460;11.868;2023-02-15T08:49:41;8.80;;;5.90;;
6358;SDS011;3212;51.460;11.868;2023-02-15T08:53:04;7.83;;;5.17;;
6358;SDS011;3212;51.460;11.868;2023-02-15T08:56:28;9.77;;;5.77;;
6358;SDS011;3212;51.460;11.868;2023-02-15T08:59:49;7.90;;;5.35;;
6358;SDS011;3212;51.460;11.868;2023-02-15T09:03:11;9.17;;;5.37;;
6358;SDS011;3212;51.460;11.868;2023-02-15T09:06:34;9.77;;;6.33;;
6358;SDS011;3212;51.460;11.868;2023-02-15T09:09:57;12.90;;;7.50;;
6358;SDS011;3212;51.460;11.868;2023-02-15T09:13:20;9.87;;;5.70;;
6358;SDS011;3212;51.460;11.868;2023-02-15T09:16:44;10.43;;;6.73;;
6358;SDS011;3212;51.460;11.868;2023-02-15T09:20:08;9.30;;;5.90;;
6358;SDS011;3212;51.460;11.868;2023-02-15T09:23:30;21.87;;;11.13;;
6358;SDS011;3212;51.460;11.868;2023-02-15T09:26:53;14.57;;;7.93;;
6358;SDS011;3212;51.460;11.868;2023-02-15T09:30:16;9.73;;;5.90;;
6358;SDS011;3212;51.460;11.868;2023-02-15T09:33:39;10.43;;;5.90;;
6358;SDS011;3212;51.460;11.868;2023-02-15T09:37:01;9.37;;;6.17;;
6358;SDS011;3212;51.460;11.868;2023-02-15T09:40:24;8.50;;;6.00;;
6358;SDS011;3212;51.460;11.868;2023-02-15T09:43:54;21.80;;;12.30;;
6358;SDS011;3212;51.460;11.868;2023-02-15T09:47:24;16.73;;;8.70;;
6358;SDS011;3212;51.460;11.868;2023-02-15T09:50:52;9.57;;;6.50;;
6358;SDS011;3212;51.460;11.868;2023-02-15T09:54:18;27.50;;;17.80;;
6358;SDS011;3212;51.460;11.868;2023-02-15T09:57:45;18.33;;;12.10;;
6358;SDS011;3212;51.460;11.868;2023-02-15T10:01:26;9.60;;;6.77;;
6358;SDS011;3212;51.460;11.868;2023-02-15T10:05:05;16.30;;;9.53;;
6358;SDS011;3212;51.460;11.868;2023-02-15T10:08:39;13.87;;;9.00;;
6358;SDS011;3212;51.460;11.868;2023-02-15T10:12:27;17.92;;;9.93;;
6358;SDS011;3212;51.460;11.868;2023-02-15T10:15:55;43.30;;;19.63;;
6358;SDS011;3212;51.460;11.868;2023-02-15T10:19:25;131.93;;;40.70;;
6358;SDS011;3212;51.460;11.868;2023-02-15T10:26:44;31.83;;;14.30;;
6358;SDS011;3212;51.460;11.868;2023-02-15T10:30:08;50.13;;;26.83;;
6358;SDS011;3212;51.460;11.868;2023-02-15T10:33:38;9.80;;;6.03;;
6358;SDS011;3212;51.460;11.868;2023-02-15T10:37:08;10.73;;;6.60;;
6358;SDS011;3212;51.460;11.868;2023-02-15T10:40:33;10.27;;;6.50;;
6358;SDS011;3212;51.460;11.868;2023-02-15T10:43:58;10.73;;;6.93;;
6358;SDS011;3212;51.460;11.868;2023-02-15T10:47:41;10.70;;;6.83;;
6358;SDS011;3212;51.460;11.868;2023-02-15T10:51:00;10.83;;;7.13;;
6358;SDS011;3212;51.460;11.868;2023-02-15T10:54:32;13.50;;;7.93;;
6358;SDS011;3212;51.460;11.868;2023-02-15T10:58:01;9.90;;;6.43;;
6358;SDS011;3212;51.460;11.868;2023-02-15T11:04:53;9.80;;;6.60;;
6358;SDS011;3212;51.460;11.868;2023-02-15T11:08:24;11.07;;;7.07;;
6358;SDS011;3212;51.460;11.868;2023-02-15T11:11:48;9.80;;;6.77;;
6358;SDS011;3212;51.460;11.868;2023-02-15T11:15:12;11.13;;;6.90;;
6358;SDS011;3212;51.460;11.868;2023-02-15T11:18:34;11.33;;;6.90;;
6358;SDS011;3212;51.460;11.868;2023-02-15T11:21:57;10.23;;;6.23;;
6358;SDS011;3212;51.460;11.868;2023-02-15T11:25:23;10.20;;;7.03;;
6358;SDS011;3212;51.460;11.868;2023-02-15T11:32:18;7.90;;;6.07;;
6358;SDS011;3212;51.460;11.868;2023-02-15T11:35:48;10.10;;;6.17;;
6358;SDS011;3212;51.460;11.868;2023-02-15T11:39:11;9.37;;;6.17;;
6358;SDS011;3212;51.460;11.868;2023-02-15T11:42:32;9.87;;;6.13;;
6358;SDS011;3212;51.460;11.868;2023-02-15T11:45:55;9.33;;;5.77;;
6358;SDS011;3212;51.460;11.868;2023-02-15T11:49:21;9.32;;;6.28;;
6358;SDS011;3212;51.460;11.868;2023-02-15T11:52:42;10.60;;;6.80;;
6358;SDS011;3212;51.460;11.868;2023-02-15T11:56:10;7.80;;;6.00;;
6358;SDS011;3212;51.460;11.868;2023-02-15T11:59:29;11.17;;;6.53;;
6358;SDS011;3212;51.460;11.868;2023-02-15T12:02:51;11.70;;;6.37;;
6358;SDS011;3212;51.460;11.868;2023-02-15T12:09:55;10.47;;;6.77;;
6358;SDS011;3212;51.460;11.868;2023-02-15T12:13:30;10.70;;;7.03;;
6358;SDS011;3212;51.460;11.868;2023-02-15T12:16:53;11.77;;;6.40;;
6358;SDS011;3212;51.460;11.868;2023-02-15T12:23:55;8.40;;;6.10;;
6358;SDS011;3212;51.460;11.868;2023-02-15T12:27:33;9.50;;;6.20;;
6358;SDS011;3212;51.460;11.868;2023-02-15T12:30:54;8.47;;;6.40;;
6358;SDS011;3212;51.460;11.868;2023-02-15T12:34:23;9.47;;;6.70;;
6358;SDS011;3212;51.460;11.868;2023-02-15T12:41:22;7.90;;;5.73;;
6358;SDS011;3212;51.460;11.868;2023-02-15T12:48:19;8.83;;;6.00;;
6358;SDS011;3212;51.460;11.868;2023-02-15T12:51:45;9.63;;;6.10;;
6358;SDS011;3212;51.460;11.868;2023-02-15T12:55:11;8.33;;;5.90;;
6358;SDS011;3212;51.460;11.868;2023-02-15T12:58:33;11.20;;;5.90;;
6358;SDS011;3212;51.460;11.868;2023-02-15T13:01:56;7.87;;;5.90;;
6358;SDS011;3212;51.460;11.868;2023-02-15T13:05:22;8.27;;;5.63;;
6358;SDS011;3212;51.460;11.868;2023-02-15T13:12:28;7.60;;;5.70;;
6358;SDS011;3212;51.460;11.868;2023-02-15T13:15:52;7.37;;;5.10;;
6358;SDS011;3212;51.460;11.868;2023-02-15T13:19:17;7.47;;;5.10;;
6358;SDS011;3212;51.460;11.868;2023-02-15T13:22:40;7.07;;;5.13;;
6358;SDS011;3212;51.460;11.868;2023-02-15T13:26:03;7.67;;;5.37;;
6358;SDS011;3212;51.460;11.868;2023-02-15T13:29:26;7.17;;;5.20;;
6358;SDS011;3212;51.460;11.868;2023-02-15T13:32:49;6.70;;;5.00;;
6358;SDS011;3212;51.460;11.868;2023-02-15T13:39:51;7.67;;;5.30;;
6358;SDS011;3212;51.460;11.868;2023-02-15T13:43:25;6.80;;;5.30;;
6358;SDS011;3212;51.460;11.868;2023-02-15T13:53:48;8.57;;;5.60;;
6358;SDS011;3212;51.460;11.868;2023-02-15T13:57:21;8.13;;;5.17;;
6358;SDS011;3212;51.460;11.868;2023-02-15T14:00:48;7.40;;;5.33;;
6358;SDS011;3212;51.460;11.868;2023-02-15T14:08:01;7.00;;;5.30;;
6358;SDS011;3212;51.460;11.868;2023-02-15T14:11:27;6.80;;;5.10;;
6358;SDS011;3212;51.460;11.868;2023-02-15T14:14:52;6.67;;;5.37;;
6358;SDS011;3212;51.460;11.868;2023-02-15T14:18:15;7.37;;;5.50;;
6358;SDS011;3212;51.460;11.868;2023-02-15T14:21:43;6.90;;;4.90;;
6358;SDS011;3212;51.460;11.868;2023-02-15T14:25:16;6.70;;;4.90;;
6358;SDS011;3212;51.460;11.868;2023-02-15T14:28:45;7.07;;;4.77;;
6358;SDS011;3212;51.460;11.868;2023-02-15T14:32:19;8.27;;;5.43;;
6358;SDS011;3212;51.460;11.868;2023-02-15T14:35:40;6.00;;;4.60;;
6358;SDS011;3212;51.460;11.868;2023-02-15T14:42:54;6.80;;;4.90;;
6358;SDS011;3212;51.460;11.868;2023-02-15T14:49:49;7.20;;;5.30;;
6358;SDS011;3212;51.460;11.868;2023-02-15T14:53:20;6.33;;;4.40;;
6358;SDS011;3212;51.460;11.868;2023-02-15T14:57:20;6.53;;;4.67;;
6358;SDS011;3212;51.460;11.868;2023-02-15T15:00:37;7.53;;;4.73;;
6358;SDS011;3212;51.460;11.868;2023-02-15T15:04:00;8.00;;;4.90;;
6358;SDS011;3212;51.460;11.868;2023-02-15T15:07:24;7.05;;;4.80;;
6358;SDS011;3212;51.460;11.868;2023-02-15T15:10:46;6.07;;;4.67;;
6358;SDS011;3212;51.460;11.868;2023-02-15T15:14:09;5.97;;;4.67;;
6358;SDS011;3212;51.460;11.868;2023-02-15T15:24:49;7.00;;;4.90;;
6358;SDS011;3212;51.460;11.868;2023-02-15T15:31:51;9.83;;;5.60;;
6358;SDS011;3212;51.460;11.868;2023-02-15T15:35:23;8.93;;;5.60;;
6358;SDS011;3212;51.460;11.868;2023-02-15T15:38:49;8.07;;;5.63;;
6358;SDS011;3212;51.460;11.868;2023-02-15T15:45:54;7.43;;;5.43;;
6358;SDS011;3212;51.460;11.868;2023-02-15T15:49:34;8.27;;;5.40;;
6358;SDS011;3212;51.460;11.868;2023-02-15T15:52:57;7.23;;;5.30;;
6358;SDS011;3212;51.460;11.868;2023-02-15T15:56:24;8.00;;;5.37;;
6358;SDS011;3212;51.460;11.868;2023-02-15T15:59:46;8.00;;;5.50;;
6358;SDS011;3212;51.460;11.868;2023-02-15T16:03:15;10.60;;;5.80;;
6358;SDS011;3212;51.460;11.868;2023-02-15T16:06:38;9.57;;;5.47;;
6358;SDS011;3212;51.460;11.868;2023-02-15T16:10:02;5.90;;;4.27;;
6358;SDS011;3212;51.460;11.868;2023-02-15T16:13:27;7.40;;;4.90;;
6358;SDS011;3212;51.460;11.868;2023-02-15T16:16:50;6.57;;;4.20;;
6358;SDS011;3212;51.460;11.868;2023-02-15T16:20:14;7.27;;;4.90;;
6358;SDS011;3212;51.460;11.868;2023-02-15T16:23:59;8.10;;;4.70;;
6358;SDS011;3212;51.460;11.868;2023-02-15T16:27:27;7.00;;;4.70;;
6358;SDS011;3212;51.460;11.868;2023-02-15T16:31:04;8.47;;;5.07;;
6358;SDS011;3212;51.460;11.868;2023-02-15T16:34:34;6.77;;;4.90;;
6358;SDS011;3212;51.460;11.868;2023-02-15T16:37:56;7.07;;;4.80;;
6358;SDS011;3212;51.460;11.868;2023-02-15T16:41:22;8.90;;;5.10;;
6358;SDS011;3212;51.460;11.868;2023-02-15T16:44:45;8.27;;;5.20;;
6358;SDS011;3212;51.460;11.868;2023-02-15T16:48:11;10.80;;;5.00;;
6358;SDS011;3212;51.460;11.868;2023-02-15T16:51:37;8.57;;;5.50;;
6358;SDS011;3212;51.460;11.868;2023-02-15T16:55:02;9.03;;;5.20;;
6358;SDS011;3212;51.460;11.868;2023-02-15T16:58:28;8.20;;;5.40;;
6358;SDS011;3212;51.460;11.868;2023-02-15T17:01:51;9.30;;;5.50;;
6358;SDS011;3212;51.460;11.868;2023-02-15T17:05:16;11.00;;;5.80;;
6358;SDS011;3212;51.460;11.868;2023-02-15T17:08:42;11.17;;;6.70;;
6358;SDS011;3212;51.460;11.868;2023-02-15T17:12:10;10.20;;;5.70;;
6358;SDS011;3212;51.460;11.868;2023-02-15T17:15:33;11.10;;;6.50;;
6358;SDS011;3212;51.460;11.868;2023-02-15T17:18:56;10.03;;;6.40;;
6358;SDS011;3212;51.460;11.868;2023-02-15T17:22:21;11.37;;;6.80;;
6358;SDS011;3212;51.460;11.868;2023-02-15T17:25:44;12.10;;;6.97;;
6358;SDS011;3212;51.460;11.868;2023-02-15T17:29:11;9.67;;;6.43;;
6358;SDS011;3212;51.460;11.868;2023-02-15T17:32:35;12.70;;;6.77;;
6358;SDS011;3212;51.460;11.868;2023-02-15T17:36:02;13.10;;;6.70;;
6358;SDS011;3212;51.460;11.868;2023-02-15T17:39:38;10.80;;;6.62;;
6358;SDS011;3212;51.460;11.868;2023-02-15T17:43:00;9.70;;;6.33;;
6358;SDS011;3212;51.460;11.868;2023-02-15T17:46:23;9.63;;;6.10;;
6358;SDS011;3212;51.460;11.868;2023-02-15T17:49:45;10.60;;;6.07;;
6358;SDS011;3212;51.460;11.868;2023-02-15T17:53:08;12.80;;;7.43;;
6358;SDS011;3212;51.460;11.868;2023-02-15T17:56:32;19.37;;;9.47;;
6358;SDS011;3212;51.460;11.868;2023-02-15T17:59:54;16.20;;;8.80;;
6358;SDS011;3212;51.460;11.868;2023-02-15T18:03:23;15.90;;;9.17;;
6358;SDS011;3212;51.460;11.868;2023-02-15T18:06:50;24.10;;;13.40;;
6358;SDS011;3212;51.460;11.868;2023-02-15T18:10:19;13.30;;;7.30;;
6358;SDS011;3212;51.460;11.868;2023-02-15T18:13:47;9.93;;;5.93;;
6358;SDS011;3212;51.460;11.868;2023-02-15T18:17:11;9.10;;;5.90;;
6358;SDS011;3212;51.460;11.868;2023-02-15T18:20:33;10.47;;;7.17;;
6358;SDS011;3212;51.460;11.868;2023-02-15T18:23:56;11.50;;;7.20;;
6358;SDS011;3212;51.460;11.868;2023-02-15T18:27:18;12.77;;;7.10;;
6358;SDS011;3212;51.460;11.868;2023-02-15T18:30:40;12.13;;;7.30;;
6358;SDS011;3212;51.460;11.868;2023-02-15T18:34:03;11.67;;;6.63;;
6358;SDS011;3212;51.460;11.868;2023-02-15T18:37:26;10.93;;;6.50;;
6358;SDS011;3212;51.460;11.868;2023-02-15T18:40:48;9.33;;;5.80;;
6358;SDS011;3212;51.460;11.868;2023-02-15T18:44:11;13.67;;;7.37;;
6358;SDS011;3212;51.460;11.868;2023-02-15T18:47:35;12.35;;;6.18;;
6358;SDS011;3212;51.460;11.868;2023-02-15T18:50:58;11.70;;;6.53;;
6358;SDS011;3212;51.460;11.868;2023-02-15T18:54:21;13.63;;;6.20;;
6358;SDS011;3212;51.460;11.868;2023-02-15T18:57:44;13.40;;;7.20;;
6358;SDS011;3212;51.460;11.868;2023-02-15T19:01:09;14.57;;;7.63;;
6358;SDS011;3212;51.460;11.868;2023-02-15T19:04:29;11.13;;;6.80;;
6358;SDS011;3212;51.460;11.868;2023-02-15T19:07:52;12.63;;;7.93;;
6358;SDS011;3212;51.460;11.868;2023-02-15T19:11:16;11.00;;;6.53;;
6358;SDS011;3212;51.460;11.868;2023-02-15T19:14:38;12.70;;;6.83;;
6358;SDS011;3212;51.460;11.868;2023-02-15T19:18:01;11.70;;;6.70;;
6358;SDS011;3212;51.460;11.868;2023-02-15T19:21:23;11.93;;;6.87;;
6358;SDS011;3212;51.460;11.868;2023-02-15T19:24:46;11.30;;;6.30;;
6358;SDS011;3212;51.460;11.868;2023-02-15T19:28:15;13.07;;;6.87;;
6358;SDS011;3212;51.460;11.868;2023-02-15T19:31:39;13.70;;;6.40;;
6358;SDS011;3212;51.460;11.868;2023-02-15T19:35:02;12.77;;;7.00;;
6358;SDS011;3212;51.460;11.868;2023-02-15T19:38:25;12.30;;;6.63;;
6358;SDS011;3212;51.460;11.868;2023-02-15T19:41:47;13.70;;;7.30;;
6358;SDS011;3212;51.460;11.868;2023-02-15T19:45:12;10.83;;;6.73;;
6358;SDS011;3212;51.460;11.868;2023-02-15T19:48:34;10.13;;;6.20;;
6358;SDS011;3212;51.460;11.868;2023-02-15T19:51:57;13.17;;;7.07;;
6358;SDS011;3212;51.460;11.868;2023-02-15T19:55:23;14.00;;;7.30;;
6358;SDS011;3212;51.460;11.868;2023-02-15T19:58:45;14.00;;;7.50;;
6358;SDS011;3212;51.460;11.868;2023-02-15T20:02:12;10.30;;;6.50;;
6358;SDS011;3212;51.460;11.868;2023-02-15T20:05:33;12.30;;;7.20;;
6358;SDS011;3212;51.460;11.868;2023-02-15T20:08:56;15.37;;;7.10;;
6358;SDS011;3212;51.460;11.868;2023-02-15T20:12:22;12.33;;;6.63;;
6358;SDS011;3212;51.460;11.868;2023-02-15T20:15:45;11.50;;;6.40;;
6358;SDS011;3212;51.460;11.868;2023-02-15T20:19:07;11.40;;;6.73;;
6358;SDS011;3212;51.460;11.868;2023-02-15T20:33:39;13.60;;;7.60;;
6358;SDS011;3212;51.460;11.868;2023-02-15T20:37:02;13.67;;;6.90;;
6358;SDS011;3212;51.460;11.868;2023-02-15T20:40:26;17.30;;;8.50;;
6358;SDS011;3212;51.460;11.868;2023-02-15T20:43:48;15.67;;;8.00;;
6358;SDS011;3212;51.460;11.868;2023-02-15T20:47:10;16.50;;;9.40;;
6358;SDS011;3212;51.460;11.868;2023-02-15T20:50:33;16.98;;;8.73;;
6358;SDS011;3212;51.460;11.868;2023-02-15T20:53:55;13.93;;;8.40;;
6358;SDS011;3212;51.460;11.868;2023-02-15T20:57:18;13.85;;;7.85;;
6358;SDS011;3212;51.460;11.868;2023-02-15T21:00:41;15.93;;;7.23;;
6358;SDS011;3212;51.460;11.868;2023-02-15T21:04:03;12.40;;;6.90;;
6358;SDS011;3212;51.460;11.868;2023-02-15T21:07:26;14.40;;;7.53;;
6358;SDS011;3212;51.460;11.868;2023-02-15T21:10:49;14.87;;;7.50;;
6358;SDS011;3212;51.460;11.868;2023-02-15T21:14:16;17.17;;;8.80;;
6358;SDS011;3212;51.460;11.868;2023-02-15T21:17:38;18.90;;;9.93;;
6358;SDS011;3212;51.460;11.868;2023-02-15T21:21:01;14.33;;;8.40;;
6358;SDS011;3212;51.460;11.868;2023-02-15T21:24:25;14.70;;;7.47;;
6358;SDS011;3212;51.460;11.868;2023-02-15T21:27:46;15.30;;;8.87;;
6358;SDS011;3212;51.460;11.868;2023-02-15T21:31:15;14.83;;;8.67;;
6358;SDS011;3212;51.460;11.868;2023-02-15T21:34:37;15.70;;;8.70;;
6358;SDS011;3212;51.460;11.868;2023-02-15T21:37:59;15.37;;;8.53;;
6358;SDS011;3212;51.460;11.868;2023-02-15T21:41:22;17.13;;;8.87;;
6358;SDS011;3212;51.460;11.868;2023-02-15T21:44:51;17.43;;;8.47;;
6358;SDS011;3212;51.460;11.868;2023-02-15T21:48:20;16.23;;;8.77;;
6358;SDS011;3212;51.460;11.868;2023-02-15T21:51:43;13.30;;;7.53;;
6358;SDS011;3212;51.460;11.868;2023-02-15T21:55:13;14.80;;;8.30;;
6358;SDS011;3212;51.460;11.868;2023-02-15T21:58:35;15.30;;;7.43;;
6358;SDS011;3212;51.460;11.868;2023-02-15T22:01:58;13.57;;;7.77;;